sensor_id;sensor_type;location;lat;lon;timestamp;P1;durP1;ratioP1;P2;durP2;ratioP2
47365;SDS011;33105;47.964;7.982;2023-09-18T00:01:51;4.82;;;1.88;;
47365;SDS011;33105;47.964;7.982;2023-09-18T00:04:53;8.38;;;1.80;;
47365;SDS011;33105;47.964;7.982;2023-09-18T00:07:55;5.75;;;1.70;;
47365;SDS011;33105;47.964;7.982;2023-09-18T00:10:57;10.50;;;1.95;;
47365;SDS011;33105;47.964;7.982;2023-09-18T00:13:59;34.47;;;3.90;;
47365;SDS011;33105;47.964;7.982;2023-09-18T00:17:02;42.30;;;5.32;;
47365;SDS011;33105;47.964;7.982;2023-09-18T00:20:05;19.92;;;4.10;;
47365;SDS011;33105;47.964;7.982;2023-09-18T00:23:08;31.88;;;3.88;;
47365;SDS011;33105;47.964;7.982;2023-09-18T00:26:11;18.73;;;3.80;;
47365;SDS011;33105;47.964;7.982;2023-09-18T00:29:14;13.93;;;4.07;;
47365;SDS011;33105;47.964;7.982;2023-09-18T00:32:16;21.23;;;4.00;;
47365;SDS011;33105;47.964;7.982;2023-09-18T00:35:17;27.25;;;4.72;;
47365;SDS011;33105;47.964;7.982;2023-09-18T00:38:19;22.45;;;4.80;;
47365;SDS011;33105;47.964;7.982;2023-09-18T00:41:22;28.52;;;5.50;;
47365;SDS011;33105;47.964;7.982;2023-09-18T00:44:26;20.42;;;4.88;;
47365;SDS011;33105;47.964;7.982;2023-09-18T00:47:27;23.75;;;4.78;;
47365;SDS011;33105;47.964;7.982;2023-09-18T00:50:31;16.17;;;4.75;;
47365;SDS011;33105;47.964;7.982;2023-09-18T00:53:33;24.75;;;4.72;;
47365;SDS011;33105;47.964;7.982;2023-09-18T00:56:37;23.02;;;5.32;;
47365;SDS011;33105;47.964;7.982;2023-09-18T00:59:41;24.23;;;5.70;;
47365;SDS011;33105;47.964;7.982;2023-09-18T01:02:45;20.92;;;6.47;;
47365;SDS011;33105;47.964;7.982;2023-09-18T01:05:48;15.63;;;4.90;;
47365;SDS011;33105;47.964;7.982;2023-09-18T01:08:51;27.77;;;5.35;;
47365;SDS011;33105;47.964;7.982;2023-09-18T01:18:27;17.30;;;4.68;;
47365;SDS011;33105;47.964;7.982;2023-09-18T01:21:30;14.60;;;4.95;;
47365;SDS011;33105;47.964;7.982;2023-09-18T01:24:32;18.13;;;5.28;;
47365;SDS011;33105;47.964;7.982;2023-09-18T01:27:38;14.70;;;4.57;;
47365;SDS011;33105;47.964;7.982;2023-09-18T01:30:40;20.23;;;6.03;;
47365;SDS011;33105;47.964;7.982;2023-09-18T01:33:42;14.35;;;5.78;;
47365;SDS011;33105;47.964;7.982;2023-09-18T01:36:46;16.42;;;5.80;;
47365;SDS011;33105;47.964;7.982;2023-09-18T01:39:49;19.45;;;5.63;;
47365;SDS011;33105;47.964;7.982;2023-09-18T01:42:53;18.45;;;5.60;;
47365;SDS011;33105;47.964;7.982;2023-09-18T01:45:54;17.05;;;5.25;;
47365;SDS011;33105;47.964;7.982;2023-09-18T01:48:56;16.75;;;5.63;;
47365;SDS011;33105;47.964;7.982;2023-09-18T01:51:58;15.70;;;5.03;;
47365;SDS011;33105;47.964;7.982;2023-09-18T01:55:00;26.00;;;5.80;;
47365;SDS011;33105;47.964;7.982;2023-09-18T01:58:03;13.63;;;5.43;;
47365;SDS011;33105;47.964;7.982;2023-09-18T02:01:04;18.13;;;5.22;;
47365;SDS011;33105;47.964;7.982;2023-09-18T02:04:07;17.08;;;5.15;;
47365;SDS011;33105;47.964;7.982;2023-09-18T02:07:09;24.52;;;6.00;;
47365;SDS011;33105;47.964;7.982;2023-09-18T02:10:10;18.38;;;5.35;;
47365;SDS011;33105;47.964;7.982;2023-09-18T02:13:13;19.63;;;5.65;;
47365;SDS011;33105;47.964;7.982;2023-09-18T02:16:16;14.52;;;5.25;;
47365;SDS011;33105;47.964;7.982;2023-09-18T02:19:17;16.13;;;5.28;;
47365;SDS011;33105;47.964;7.982;2023-09-18T02:22:23;15.65;;;5.40;;
47365;SDS011;33105;47.964;7.982;2023-09-18T02:25:25;16.70;;;5.50;;
47365;SDS011;33105;47.964;7.982;2023-09-18T02:28:27;17.42;;;5.55;;
47365;SDS011;33105;47.964;7.982;2023-09-18T02:31:30;15.88;;;6.00;;
47365;SDS011;33105;47.964;7.982;2023-09-18T02:34:33;24.95;;;6.10;;
47365;SDS011;33105;47.964;7.982;2023-09-18T02:37:36;20.60;;;6.00;;
47365;SDS011;33105;47.964;7.982;2023-09-18T02:40:38;15.02;;;5.47;;
47365;SDS011;33105;47.964;7.982;2023-09-18T02:43:39;22.45;;;6.10;;
47365;SDS011;33105;47.964;7.982;2023-09-18T02:46:42;26.85;;;6.47;;
47365;SDS011;33105;47.964;7.982;2023-09-18T02:49:46;24.88;;;5.70;;
47365;SDS011;33105;47.964;7.982;2023-09-18T02:52:49;21.88;;;4.10;;
47365;SDS011;33105;47.964;7.982;2023-09-18T02:55:52;14.95;;;3.42;;
47365;SDS011;33105;47.964;7.982;2023-09-18T02:58:58;16.15;;;2.70;;
47365;SDS011;33105;47.964;7.982;2023-09-18T03:02:00;13.27;;;2.63;;
47365;SDS011;33105;47.964;7.982;2023-09-18T03:05:02;9.63;;;1.95;;
47365;SDS011;33105;47.964;7.982;2023-09-18T03:08:05;18.05;;;3.80;;
47365;SDS011;33105;47.964;7.982;2023-09-18T03:11:11;14.68;;;4.40;;
47365;SDS011;33105;47.964;7.982;2023-09-18T03:14:14;17.23;;;4.80;;
47365;SDS011;33105;47.964;7.982;2023-09-18T03:17:16;13.05;;;4.25;;
47365;SDS011;33105;47.964;7.982;2023-09-18T03:20:21;13.23;;;4.13;;
47365;SDS011;33105;47.964;7.982;2023-09-18T03:23:25;26.25;;;5.00;;
47365;SDS011;33105;47.964;7.982;2023-09-18T03:26:30;16.38;;;4.05;;
47365;SDS011;33105;47.964;7.982;2023-09-18T03:29:31;11.18;;;3.72;;
47365;SDS011;33105;47.964;7.982;2023-09-18T03:32:35;18.83;;;4.32;;
47365;SDS011;33105;47.964;7.982;2023-09-18T03:35:50;10.38;;;4.00;;
47365;SDS011;33105;47.964;7.982;2023-09-18T03:38:57;15.68;;;4.30;;
47365;SDS011;33105;47.964;7.982;2023-09-18T03:42:00;15.50;;;3.63;;
47365;SDS011;33105;47.964;7.982;2023-09-18T03:45:02;11.05;;;3.85;;
47365;SDS011;33105;47.964;7.982;2023-09-18T03:48:07;10.88;;;3.83;;
47365;SDS011;33105;47.964;7.982;2023-09-18T03:51:08;12.90;;;3.60;;
47365;SDS011;33105;47.964;7.982;2023-09-18T03:54:11;13.23;;;4.18;;
47365;SDS011;33105;47.964;7.982;2023-09-18T03:57:13;8.98;;;3.53;;
47365;SDS011;33105;47.964;7.982;2023-09-18T04:00:14;11.80;;;3.03;;
47365;SDS011;33105;47.964;7.982;2023-09-18T04:03:17;14.65;;;3.63;;
47365;SDS011;33105;47.964;7.982;2023-09-18T04:06:23;15.57;;;3.50;;
47365;SDS011;33105;47.964;7.982;2023-09-18T04:09:27;12.25;;;3.40;;
47365;SDS011;33105;47.964;7.982;2023-09-18T04:12:29;10.43;;;3.30;;
47365;SDS011;33105;47.964;7.982;2023-09-18T04:15:31;14.65;;;3.80;;
47365;SDS011;33105;47.964;7.982;2023-09-18T04:18:33;14.05;;;3.72;;
47365;SDS011;33105;47.964;7.982;2023-09-18T04:21:36;8.80;;;2.88;;
47365;SDS011;33105;47.964;7.982;2023-09-18T04:24:38;8.70;;;3.20;;
47365;SDS011;33105;47.964;7.982;2023-09-18T04:27:40;11.20;;;3.22;;
47365;SDS011;33105;47.964;7.982;2023-09-18T04:30:43;10.10;;;2.95;;
47365;SDS011;33105;47.964;7.982;2023-09-18T04:33:45;13.90;;;3.70;;
47365;SDS011;33105;47.964;7.982;2023-09-18T04:36:48;14.90;;;4.05;;
47365;SDS011;33105;47.964;7.982;2023-09-18T04:39:52;9.30;;;3.65;;
47365;SDS011;33105;47.964;7.982;2023-09-18T04:42:54;6.28;;;2.75;;
47365;SDS011;33105;47.964;7.982;2023-09-18T04:45:56;9.85;;;2.78;;
47365;SDS011;33105;47.964;7.982;2023-09-18T04:48:59;12.98;;;3.70;;
47365;SDS011;33105;47.964;7.982;2023-09-18T04:52:01;10.75;;;3.60;;
47365;SDS011;33105;47.964;7.982;2023-09-18T04:55:03;15.23;;;5.05;;
47365;SDS011;33105;47.964;7.982;2023-09-18T04:58:07;18.08;;;4.07;;
47365;SDS011;33105;47.964;7.982;2023-09-18T05:01:09;18.58;;;4.20;;
47365;SDS011;33105;47.964;7.982;2023-09-18T05:04:14;13.70;;;3.70;;
47365;SDS011;33105;47.964;7.982;2023-09-18T05:07:17;12.02;;;3.60;;
47365;SDS011;33105;47.964;7.982;2023-09-18T05:10:18;13.90;;;3.20;;
47365;SDS011;33105;47.964;7.982;2023-09-18T05:13:20;10.35;;;3.22;;
47365;SDS011;33105;47.964;7.982;2023-09-18T05:16:21;11.15;;;3.70;;
47365;SDS011;33105;47.964;7.982;2023-09-18T05:19:23;16.50;;;3.78;;
47365;SDS011;33105;47.964;7.982;2023-09-18T05:22:24;16.50;;;3.60;;
47365;SDS011;33105;47.964;7.982;2023-09-18T05:25:29;13.52;;;3.60;;
47365;SDS011;33105;47.964;7.982;2023-09-18T05:28:34;10.32;;;3.10;;
47365;SDS011;33105;47.964;7.982;2023-09-18T05:31:35;15.27;;;3.40;;
47365;SDS011;33105;47.964;7.982;2023-09-18T05:34:38;10.00;;;3.35;;
47365;SDS011;33105;47.964;7.982;2023-09-18T05:37:40;11.77;;;3.30;;
47365;SDS011;33105;47.964;7.982;2023-09-18T05:40:43;15.55;;;3.80;;
47365;SDS011;33105;47.964;7.982;2023-09-18T05:43:46;9.00;;;3.03;;
47365;SDS011;33105;47.964;7.982;2023-09-18T05:46:49;13.85;;;3.60;;
47365;SDS011;33105;47.964;7.982;2023-09-18T05:49:50;9.45;;;3.40;;
47365;SDS011;33105;47.964;7.982;2023-09-18T05:52:53;11.40;;;3.60;;
47365;SDS011;33105;47.964;7.982;2023-09-18T05:55:54;10.63;;;3.42;;
47365;SDS011;33105;47.964;7.982;2023-09-18T05:58:57;10.98;;;3.20;;
47365;SDS011;33105;47.964;7.982;2023-09-18T06:01:59;13.50;;;3.65;;
47365;SDS011;33105;47.964;7.982;2023-09-18T06:05:02;9.63;;;2.97;;
47365;SDS011;33105;47.964;7.982;2023-09-18T06:08:04;6.38;;;2.28;;
47365;SDS011;33105;47.964;7.982;2023-09-18T06:11:07;12.48;;;3.42;;
47365;SDS011;33105;47.964;7.982;2023-09-18T06:14:10;17.65;;;3.65;;
47365;SDS011;33105;47.964;7.982;2023-09-18T06:17:11;15.57;;;3.03;;
47365;SDS011;33105;47.964;7.982;2023-09-18T06:20:13;12.60;;;2.90;;
47365;SDS011;33105;47.964;7.982;2023-09-18T06:23:15;15.93;;;3.92;;
47365;SDS011;33105;47.964;7.982;2023-09-18T06:26:17;13.55;;;4.07;;
47365;SDS011;33105;47.964;7.982;2023-09-18T06:29:19;13.38;;;4.05;;
47365;SDS011;33105;47.964;7.982;2023-09-18T06:32:20;17.88;;;3.65;;
47365;SDS011;33105;47.964;7.982;2023-09-18T06:35:22;13.05;;;3.22;;
47365;SDS011;33105;47.964;7.982;2023-09-18T06:38:24;11.07;;;3.47;;
47365;SDS011;33105;47.964;7.982;2023-09-18T06:41:26;8.80;;;3.28;;
47365;SDS011;33105;47.964;7.982;2023-09-18T06:44:29;9.75;;;2.78;;
47365;SDS011;33105;47.964;7.982;2023-09-18T06:47:31;8.60;;;3.10;;
47365;SDS011;33105;47.964;7.982;2023-09-18T06:50:34;8.43;;;3.17;;
47365;SDS011;33105;47.964;7.982;2023-09-18T06:53:37;7.80;;;3.13;;
47365;SDS011;33105;47.964;7.982;2023-09-18T06:56:38;9.30;;;2.97;;
47365;SDS011;33105;47.964;7.982;2023-09-18T06:59:40;8.70;;;3.13;;
47365;SDS011;33105;47.964;7.982;2023-09-18T07:02:42;8.65;;;2.72;;
47365;SDS011;33105;47.964;7.982;2023-09-18T07:05:44;12.45;;;3.13;;
47365;SDS011;33105;47.964;7.982;2023-09-18T07:08:47;10.50;;;2.70;;
47365;SDS011;33105;47.964;7.982;2023-09-18T07:11:52;10.48;;;3.10;;
47365;SDS011;33105;47.964;7.982;2023-09-18T07:14:53;9.70;;;2.67;;
47365;SDS011;33105;47.964;7.982;2023-09-18T07:17:57;8.68;;;1.90;;
47365;SDS011;33105;47.964;7.982;2023-09-18T07:20:59;6.10;;;1.90;;
47365;SDS011;33105;47.964;7.982;2023-09-18T07:24:01;5.45;;;2.25;;
47365;SDS011;33105;47.964;7.982;2023-09-18T07:27:06;6.82;;;2.15;;
47365;SDS011;33105;47.964;7.982;2023-09-18T07:30:08;6.05;;;2.33;;
47365;SDS011;33105;47.964;7.982;2023-09-18T07:33:13;5.13;;;1.77;;
47365;SDS011;33105;47.964;7.982;2023-09-18T07:36:21;5.80;;;1.90;;
47365;SDS011;33105;47.964;7.982;2023-09-18T07:39:23;7.20;;;2.10;;
47365;SDS011;33105;47.964;7.982;2023-09-18T07:42:25;7.53;;;1.83;;
47365;SDS011;33105;47.964;7.982;2023-09-18T07:45:28;5.72;;;1.48;;
47365;SDS011;33105;47.964;7.982;2023-09-18T07:48:30;8.35;;;1.95;;
47365;SDS011;33105;47.964;7.982;2023-09-18T07:51:32;6.63;;;1.48;;
47365;SDS011;33105;47.964;7.982;2023-09-18T07:54:35;9.00;;;1.50;;
47365;SDS011;33105;47.964;7.982;2023-09-18T07:57:37;8.68;;;2.10;;
47365;SDS011;33105;47.964;7.982;2023-09-18T08:00:39;5.95;;;1.80;;
47365;SDS011;33105;47.964;7.982;2023-09-18T08:03:42;4.80;;;1.70;;
47365;SDS011;33105;47.964;7.982;2023-09-18T08:06:43;9.60;;;2.80;;
47365;SDS011;33105;47.964;7.982;2023-09-18T08:09:46;14.18;;;2.67;;
47365;SDS011;33105;47.964;7.982;2023-09-18T08:12:49;3.25;;;1.83;;
47365;SDS011;33105;47.964;7.982;2023-09-18T08:15:55;6.50;;;1.80;;
47365;SDS011;33105;47.964;7.982;2023-09-18T08:18:58;7.18;;;1.50;;
47365;SDS011;33105;47.964;7.982;2023-09-18T08:22:00;8.85;;;1.90;;
47365;SDS011;33105;47.964;7.982;2023-09-18T08:25:02;8.95;;;1.73;;
47365;SDS011;33105;47.964;7.982;2023-09-18T08:28:04;5.18;;;1.60;;
47365;SDS011;33105;47.964;7.982;2023-09-18T08:31:07;9.15;;;1.40;;
47365;SDS011;33105;47.964;7.982;2023-09-18T08:34:08;7.68;;;1.55;;
47365;SDS011;33105;47.964;7.982;2023-09-18T08:37:11;5.40;;;1.45;;
47365;SDS011;33105;47.964;7.982;2023-09-18T08:40:14;5.85;;;1.65;;
47365;SDS011;33105;47.964;7.982;2023-09-18T08:43:15;3.42;;;1.20;;
47365;SDS011;33105;47.964;7.982;2023-09-18T08:46:19;7.57;;;1.42;;
47365;SDS011;33105;47.964;7.982;2023-09-18T08:49:23;3.35;;;1.10;;
47365;SDS011;33105;47.964;7.982;2023-09-18T08:52:25;6.70;;;1.48;;
47365;SDS011;33105;47.964;7.982;2023-09-18T08:55:29;4.65;;;1.58;;
47365;SDS011;33105;47.964;7.982;2023-09-18T08:58:31;4.15;;;1.38;;
47365;SDS011;33105;47.964;7.982;2023-09-18T09:01:37;5.18;;;1.38;;
47365;SDS011;33105;47.964;7.982;2023-09-18T09:04:39;2.67;;;1.65;;
47365;SDS011;33105;47.964;7.982;2023-09-18T09:07:41;4.40;;;1.52;;
47365;SDS011;33105;47.964;7.982;2023-09-18T09:10:43;4.40;;;1.63;;
47365;SDS011;33105;47.964;7.982;2023-09-18T09:13:46;4.55;;;1.20;;
47365;SDS011;33105;47.964;7.982;2023-09-18T09:16:50;4.68;;;1.55;;
47365;SDS011;33105;47.964;7.982;2023-09-18T09:19:53;4.90;;;1.92;;
47365;SDS011;33105;47.964;7.982;2023-09-18T09:23:10;4.80;;;1.65;;
47365;SDS011;33105;47.964;7.982;2023-09-18T09:26:13;7.50;;;1.58;;
47365;SDS011;33105;47.964;7.982;2023-09-18T09:29:16;5.75;;;1.33;;
47365;SDS011;33105;47.964;7.982;2023-09-18T09:32:21;2.70;;;1.25;;
47365;SDS011;33105;47.964;7.982;2023-09-18T09:35:27;6.63;;;1.70;;
47365;SDS011;33105;47.964;7.982;2023-09-18T09:38:32;2.97;;;1.30;;
47365;SDS011;33105;47.964;7.982;2023-09-18T09:41:35;1.55;;;1.40;;
47365;SDS011;33105;47.964;7.982;2023-09-18T09:44:38;6.43;;;1.98;;
47365;SDS011;33105;47.964;7.982;2023-09-18T09:47:39;5.95;;;1.73;;
47365;SDS011;33105;47.964;7.982;2023-09-18T09:50:45;7.70;;;1.80;;
47365;SDS011;33105;47.964;7.982;2023-09-18T09:53:50;5.55;;;1.90;;
47365;SDS011;33105;47.964;7.982;2023-09-18T09:56:52;7.45;;;2.13;;
47365;SDS011;33105;47.964;7.982;2023-09-18T10:00:02;3.10;;;1.50;;
47365;SDS011;33105;47.964;7.982;2023-09-18T10:03:24;5.88;;;1.67;;
47365;SDS011;33105;47.964;7.982;2023-09-18T10:06:27;2.28;;;1.40;;
47365;SDS011;33105;47.964;7.982;2023-09-18T10:09:32;6.13;;;1.48;;
47365;SDS011;33105;47.964;7.982;2023-09-18T10:12:36;5.88;;;1.50;;
47365;SDS011;33105;47.964;7.982;2023-09-18T10:15:40;6.72;;;1.70;;
47365;SDS011;33105;47.964;7.982;2023-09-18T10:18:50;3.15;;;1.48;;
47365;SDS011;33105;47.964;7.982;2023-09-18T10:22:18;7.00;;;1.67;;
47365;SDS011;33105;47.964;7.982;2023-09-18T10:25:31;4.18;;;1.95;;
47365;SDS011;33105;47.964;7.982;2023-09-18T10:28:34;2.65;;;1.42;;
47365;SDS011;33105;47.964;7.982;2023-09-18T10:31:37;8.63;;;1.80;;
47365;SDS011;33105;47.964;7.982;2023-09-18T10:34:42;4.45;;;1.48;;
47365;SDS011;33105;47.964;7.982;2023-09-18T10:37:46;2.67;;;1.30;;
47365;SDS011;33105;47.964;7.982;2023-09-18T10:40:50;3.50;;;1.02;;
47365;SDS011;33105;47.964;7.982;2023-09-18T10:43:53;2.45;;;1.00;;
47365;SDS011;33105;47.964;7.982;2023-09-18T10:47:00;3.03;;;1.13;;
47365;SDS011;33105;47.964;7.982;2023-09-18T10:50:04;1.73;;;1.00;;
47365;SDS011;33105;47.964;7.982;2023-09-18T10:53:09;3.90;;;1.10;;
47365;SDS011;33105;47.964;7.982;2023-09-18T10:56:14;1.92;;;1.00;;
47365;SDS011;33105;47.964;7.982;2023-09-18T10:59:18;3.33;;;0.80;;
47365;SDS011;33105;47.964;7.982;2023-09-18T11:02:20;6.00;;;1.38;;
47365;SDS011;33105;47.964;7.982;2023-09-18T11:05:29;2.92;;;1.45;;
47365;SDS011;33105;47.964;7.982;2023-09-18T11:08:34;2.33;;;1.15;;
47365;SDS011;33105;47.964;7.982;2023-09-18T11:11:44;7.63;;;1.55;;
47365;SDS011;33105;47.964;7.982;2023-09-18T11:14:48;2.05;;;0.88;;
47365;SDS011;33105;47.964;7.982;2023-09-18T11:18:00;2.90;;;0.90;;
47365;SDS011;33105;47.964;7.982;2023-09-18T11:21:09;1.80;;;0.93;;
47365;SDS011;33105;47.964;7.982;2023-09-18T11:27:25;3.95;;;1.20;;
47365;SDS011;33105;47.964;7.982;2023-09-18T11:30:51;2.00;;;1.10;;
47365;SDS011;33105;47.964;7.982;2023-09-18T11:34:10;4.80;;;1.13;;
47365;SDS011;33105;47.964;7.982;2023-09-18T11:37:21;5.10;;;1.30;;
47365;SDS011;33105;47.964;7.982;2023-09-18T11:40:30;4.93;;;1.42;;
47365;SDS011;33105;47.964;7.982;2023-09-18T11:43:35;2.90;;;1.00;;
47365;SDS011;33105;47.964;7.982;2023-09-18T11:46:40;5.50;;;1.08;;
47365;SDS011;33105;47.964;7.982;2023-09-18T11:49:47;7.18;;;1.08;;
47365;SDS011;33105;47.964;7.982;2023-09-18T11:53:01;3.03;;;1.20;;
47365;SDS011;33105;47.964;7.982;2023-09-18T11:56:03;7.65;;;1.33;;
47365;SDS011;33105;47.964;7.982;2023-09-18T11:59:11;2.67;;;1.20;;
47365;SDS011;33105;47.964;7.982;2023-09-18T12:05:29;1.92;;;0.93;;
47365;SDS011;33105;47.964;7.982;2023-09-18T12:08:31;4.00;;;1.17;;
47365;SDS011;33105;47.964;7.982;2023-09-18T12:11:35;5.05;;;1.38;;
47365;SDS011;33105;47.964;7.982;2023-09-18T12:14:38;3.28;;;1.23;;
47365;SDS011;33105;47.964;7.982;2023-09-18T12:17:43;4.55;;;1.30;;
47365;SDS011;33105;47.964;7.982;2023-09-18T12:20:45;2.72;;;1.02;;
47365;SDS011;33105;47.964;7.982;2023-09-18T12:23:51;1.63;;;1.00;;
47365;SDS011;33105;47.964;7.982;2023-09-18T12:26:53;3.25;;;1.30;;
47365;SDS011;33105;47.964;7.982;2023-09-18T12:29:56;3.40;;;1.00;;
47365;SDS011;33105;47.964;7.982;2023-09-18T12:33:02;1.95;;;0.93;;
47365;SDS011;33105;47.964;7.982;2023-09-18T12:36:07;5.30;;;0.90;;
47365;SDS011;33105;47.964;7.982;2023-09-18T12:39:10;2.40;;;0.77;;
47365;SDS011;33105;47.964;7.982;2023-09-18T12:42:13;2.53;;;1.00;;
47365;SDS011;33105;47.964;7.982;2023-09-18T12:45:14;3.30;;;1.02;;
47365;SDS011;33105;47.964;7.982;2023-09-18T12:48:17;2.92;;;1.10;;
47365;SDS011;33105;47.964;7.982;2023-09-18T12:51:28;2.20;;;0.82;;
47365;SDS011;33105;47.964;7.982;2023-09-18T12:57:44;1.70;;;0.60;;
47365;SDS011;33105;47.964;7.982;2023-09-18T13:00:47;2.53;;;0.93;;
47365;SDS011;33105;47.964;7.982;2023-09-18T13:03:53;3.25;;;0.93;;
47365;SDS011;33105;47.964;7.982;2023-09-18T13:07:07;2.72;;;0.90;;
47365;SDS011;33105;47.964;7.982;2023-09-18T13:10:10;1.88;;;0.70;;
47365;SDS011;33105;47.964;7.982;2023-09-18T13:13:16;1.70;;;0.95;;
47365;SDS011;33105;47.964;7.982;2023-09-18T13:16:21;5.38;;;0.90;;
47365;SDS011;33105;47.964;7.982;2023-09-18T13:19:24;3.45;;;1.00;;
47365;SDS011;33105;47.964;7.982;2023-09-18T13:22:26;3.15;;;0.90;;
47365;SDS011;33105;47.964;7.982;2023-09-18T13:25:29;2.42;;;0.75;;
47365;SDS011;33105;47.964;7.982;2023-09-18T13:28:33;2.33;;;0.90;;
47365;SDS011;33105;47.964;7.982;2023-09-18T13:31:36;1.85;;;0.80;;
47365;SDS011;33105;47.964;7.982;2023-09-18T13:34:39;2.03;;;0.70;;
47365;SDS011;33105;47.964;7.982;2023-09-18T13:37:41;1.05;;;0.52;;
47365;SDS011;33105;47.964;7.982;2023-09-18T13:40:45;4.60;;;1.08;;
47365;SDS011;33105;47.964;7.982;2023-09-18T13:43:49;3.17;;;0.90;;
47365;SDS011;33105;47.964;7.982;2023-09-18T13:46:56;4.65;;;1.00;;
47365;SDS011;33105;47.964;7.982;2023-09-18T13:49:59;1.60;;;1.08;;
47365;SDS011;33105;47.964;7.982;2023-09-18T13:53:01;1.75;;;0.80;;
47365;SDS011;33105;47.964;7.982;2023-09-18T13:56:05;2.45;;;0.95;;
47365;SDS011;33105;47.964;7.982;2023-09-18T13:59:07;2.65;;;1.00;;
47365;SDS011;33105;47.964;7.982;2023-09-18T14:02:08;4.07;;;0.93;;
47365;SDS011;33105;47.964;7.982;2023-09-18T14:05:10;5.95;;;1.00;;
47365;SDS011;33105;47.964;7.982;2023-09-18T14:08:13;1.38;;;1.02;;
47365;SDS011;33105;47.964;7.982;2023-09-18T14:11:15;2.70;;;0.90;;
47365;SDS011;33105;47.964;7.982;2023-09-18T14:14:21;4.40;;;1.10;;
47365;SDS011;33105;47.964;7.982;2023-09-18T14:17:24;2.88;;;1.20;;
47365;SDS011;33105;47.964;7.982;2023-09-18T14:20:26;5.75;;;1.05;;
47365;SDS011;33105;47.964;7.982;2023-09-18T14:23:27;3.08;;;1.23;;
47365;SDS011;33105;47.964;7.982;2023-09-18T14:26:30;3.42;;;1.00;;
47365;SDS011;33105;47.964;7.982;2023-09-18T14:29:31;4.50;;;1.30;;
47365;SDS011;33105;47.964;7.982;2023-09-18T14:32:33;4.75;;;1.20;;
47365;SDS011;33105;47.964;7.982;2023-09-18T14:35:37;3.40;;;1.20;;
47365;SDS011;33105;47.964;7.982;2023-09-18T14:38:39;4.50;;;1.20;;
47365;SDS011;33105;47.964;7.982;2023-09-18T14:41:41;3.08;;;1.23;;
47365;SDS011;33105;47.964;7.982;2023-09-18T14:44:43;4.00;;;1.00;;
47365;SDS011;33105;47.964;7.982;2023-09-18T14:47:47;2.72;;;1.10;;
47365;SDS011;33105;47.964;7.982;2023-09-18T14:50:55;5.97;;;1.13;;
47365;SDS011;33105;47.964;7.982;2023-09-18T14:53:59;2.03;;;1.02;;
47365;SDS011;33105;47.964;7.982;2023-09-18T14:57:01;3.13;;;1.38;;
47365;SDS011;33105;47.964;7.982;2023-09-18T15:00:03;1.30;;;1.02;;
47365;SDS011;33105;47.964;7.982;2023-09-18T15:03:07;6.55;;;1.60;;
47365;SDS011;33105;47.964;7.982;2023-09-18T15:06:09;4.38;;;1.20;;
47365;SDS011;33105;47.964;7.982;2023-09-18T15:09:11;6.18;;;1.40;;
47365;SDS011;33105;47.964;7.982;2023-09-18T15:12:14;4.03;;;1.15;;
47365;SDS011;33105;47.964;7.982;2023-09-18T15:15:15;3.25;;;1.00;;
47365;SDS011;33105;47.964;7.982;2023-09-18T15:18:17;5.47;;;1.30;;
47365;SDS011;33105;47.964;7.982;2023-09-18T15:21:19;5.15;;;1.45;;
47365;SDS011;33105;47.964;7.982;2023-09-18T15:24:21;5.47;;;1.30;;
47365;SDS011;33105;47.964;7.982;2023-09-18T15:27:23;4.63;;;1.40;;
47365;SDS011;33105;47.964;7.982;2023-09-18T15:30:26;3.28;;;1.40;;
47365;SDS011;33105;47.964;7.982;2023-09-18T15:33:28;3.75;;;1.40;;
47365;SDS011;33105;47.964;7.982;2023-09-18T15:36:31;9.48;;;3.55;;
47365;SDS011;33105;47.964;7.982;2023-09-18T15:39:33;49.03;;;16.17;;
47365;SDS011;33105;47.964;7.982;2023-09-18T15:42:37;29.10;;;10.90;;
47365;SDS011;33105;47.964;7.982;2023-09-18T15:45:40;29.33;;;10.90;;
47365;SDS011;33105;47.964;7.982;2023-09-18T15:48:43;24.65;;;8.48;;
47365;SDS011;33105;47.964;7.982;2023-09-18T15:51:45;5.25;;;1.70;;
47365;SDS011;33105;47.964;7.982;2023-09-18T15:54:48;9.20;;;3.30;;
47365;SDS011;33105;47.964;7.982;2023-09-18T15:57:52;12.27;;;5.63;;
47365;SDS011;33105;47.964;7.982;2023-09-18T16:00:53;9.75;;;3.70;;
47365;SDS011;33105;47.964;7.982;2023-09-18T16:03:58;5.18;;;1.70;;
47365;SDS011;33105;47.964;7.982;2023-09-18T16:07:00;2.83;;;1.20;;
47365;SDS011;33105;47.964;7.982;2023-09-18T16:10:03;3.83;;;1.27;;
47365;SDS011;33105;47.964;7.982;2023-09-18T16:13:08;4.57;;;1.10;;
47365;SDS011;33105;47.964;7.982;2023-09-18T16:16:10;2.28;;;1.35;;
47365;SDS011;33105;47.964;7.982;2023-09-18T16:19:13;5.20;;;1.92;;
47365;SDS011;33105;47.964;7.982;2023-09-18T16:22:15;5.57;;;1.40;;
47365;SDS011;33105;47.964;7.982;2023-09-18T16:25:17;6.90;;;1.70;;
47365;SDS011;33105;47.964;7.982;2023-09-18T16:28:18;5.80;;;1.40;;
47365;SDS011;33105;47.964;7.982;2023-09-18T16:31:20;4.30;;;1.52;;
47365;SDS011;33105;47.964;7.982;2023-09-18T16:34:22;2.33;;;1.30;;
47365;SDS011;33105;47.964;7.982;2023-09-18T16:37:24;5.68;;;2.30;;
47365;SDS011;33105;47.964;7.982;2023-09-18T16:40:26;3.25;;;1.65;;
47365;SDS011;33105;47.964;7.982;2023-09-18T16:43:31;8.93;;;2.45;;
47365;SDS011;33105;47.964;7.982;2023-09-18T16:46:33;6.70;;;2.85;;
47365;SDS011;33105;47.964;7.982;2023-09-18T16:49:34;6.15;;;3.00;;
47365;SDS011;33105;47.964;7.982;2023-09-18T16:52:36;6.97;;;3.03;;
47365;SDS011;33105;47.964;7.982;2023-09-18T16:55:40;5.13;;;2.85;;
47365;SDS011;33105;47.964;7.982;2023-09-18T16:58:41;6.88;;;2.67;;
47365;SDS011;33105;47.964;7.982;2023-09-18T17:01:45;5.15;;;3.00;;
47365;SDS011;33105;47.964;7.982;2023-09-18T17:04:47;4.13;;;1.50;;
47365;SDS011;33105;47.964;7.982;2023-09-18T17:07:50;4.97;;;1.70;;
47365;SDS011;33105;47.964;7.982;2023-09-18T17:10:54;3.00;;;1.70;;
47365;SDS011;33105;47.964;7.982;2023-09-18T17:13:56;4.22;;;1.60;;
47365;SDS011;33105;47.964;7.982;2023-09-18T17:16:59;5.05;;;2.22;;
47365;SDS011;33105;47.964;7.982;2023-09-18T17:20:01;6.45;;;2.00;;
47365;SDS011;33105;47.964;7.982;2023-09-18T17:23:05;4.80;;;2.42;;
47365;SDS011;33105;47.964;7.982;2023-09-18T17:26:08;6.35;;;2.00;;
47365;SDS011;33105;47.964;7.982;2023-09-18T17:29:10;4.50;;;1.90;;
47365;SDS011;33105;47.964;7.982;2023-09-18T17:32:13;5.57;;;1.80;;
47365;SDS011;33105;47.964;7.982;2023-09-18T17:35:16;3.50;;;1.75;;
47365;SDS011;33105;47.964;7.982;2023-09-18T17:38:18;4.90;;;1.60;;
47365;SDS011;33105;47.964;7.982;2023-09-18T17:41:19;5.47;;;2.00;;
47365;SDS011;33105;47.964;7.982;2023-09-18T17:44:22;5.47;;;2.00;;
47365;SDS011;33105;47.964;7.982;2023-09-18T17:47:24;5.35;;;1.92;;
47365;SDS011;33105;47.964;7.982;2023-09-18T17:50:26;10.07;;;2.10;;
47365;SDS011;33105;47.964;7.982;2023-09-18T17:53:29;5.22;;;2.28;;
47365;SDS011;33105;47.964;7.982;2023-09-18T17:56:31;4.68;;;1.75;;
47365;SDS011;33105;47.964;7.982;2023-09-18T17:59:33;7.30;;;1.40;;
47365;SDS011;33105;47.964;7.982;2023-09-18T18:02:37;10.45;;;2.40;;
47365;SDS011;33105;47.964;7.982;2023-09-18T18:05:40;6.00;;;2.53;;
47365;SDS011;33105;47.964;7.982;2023-09-18T18:08:45;11.25;;;2.20;;
47365;SDS011;33105;47.964;7.982;2023-09-18T18:11:46;12.63;;;2.30;;
47365;SDS011;33105;47.964;7.982;2023-09-18T18:14:47;3.08;;;2.05;;
47365;SDS011;33105;47.964;7.982;2023-09-18T18:17:50;6.70;;;2.20;;
47365;SDS011;33105;47.964;7.982;2023-09-18T18:20:55;6.35;;;1.95;;
47365;SDS011;33105;47.964;7.982;2023-09-18T18:23:58;9.30;;;2.20;;
47365;SDS011;33105;47.964;7.982;2023-09-18T18:27:01;5.50;;;2.47;;
47365;SDS011;33105;47.964;7.982;2023-09-18T18:30:04;4.05;;;2.10;;
47365;SDS011;33105;47.964;7.982;2023-09-18T18:33:08;6.00;;;2.20;;
47365;SDS011;33105;47.964;7.982;2023-09-18T18:36:09;3.38;;;1.95;;